Terminal Aerodrome Forecast
Issued by NWS

Home | Current Version | Previous Version | Text Only | Print | Product List | Glossary On
Versions: 1 2 3 4 5 6 7 8 9 10 11 12 13 14 15 16 17 18 19 20 21 22
133
FTUS41 KCAR 230528
TAFFVE
TAF
KFVE 230528Z 2306/2406 VRB02KT P6SM SCT150
     FM231300 16006KT P6SM VCSH OVC080
     FM231500 16007KT 3SM -RA OVC030
     FM231600 16008KT 3SM -RA BKN005 OVC040
     FM232100 16008KT 1SM -RA SCT001 OVC003
     FM240000 20005KT 1SM +RA VCTS BKN002 OVC020CB=

USA.gov is the U.S. government's official web portal to all federal, state and local government web resources and services.